Time;durP1;ratioP1;P1;durP2;ratioP2;P2;SDS_P1;SDS_P2;PMS_P1;PMS_P2;Temp;Humidity;BMP_temperature;BMP_pressure;BME280_temperature;BME280_humidity;BME280_pressure;Samples;Min_cycle;Max_cycle;Signal;HPM_P1;HPM_P2
2024/01/09 00:01:08;;;;;;;6.90;3.45;;;;;;;;;;4982320;28;20046;-86
2024/01/09 00:03:36;;;;;;;1.38;1.13;;;;;;;;;;4981405;28;20039;-80
2024/01/09 00:06:04;;;;;;;6.30;4.57;;;;;;;;;;4980421;28;20055;-79
2024/01/09 00:08:31;;;;;;;6.45;4.93;;;;;;;;;;4982513;28;20050;-79
2024/01/09 00:11:00;;;;;;;4.57;3.42;;;;;;;;;;4979708;28;20046;-83
2024/01/09 00:13:27;;;;;;;5.13;2.28;;;;;;;;;;4980656;28;20039;-79
2024/01/09 00:15:55;;;;;;;3.80;2.45;;;;;;;;;;4982932;28;21141;-79
2024/01/09 00:18:22;;;;;;;6.72;2.88;;;;;;;;;;4983421;28;20322;-79
2024/01/09 00:20:50;;;;;;;2.05;1.83;;;;;;;;;;4978369;28;20105;-79
2024/01/09 00:23:18;;;;;;;10.73;5.03;;;;;;;;;;4979282;28;20061;-79
2024/01/09 00:25:45;;;;;;;3.22;2.35;;;;;;;;;;4981848;28;20058;-79
2024/01/09 00:28:13;;;;;;;5.13;3.85;;;;;;;;;;4983016;28;20046;-80
2024/01/09 00:30:41;;;;;;;3.63;2.70;;;;;;;;;;4985256;28;20508;-79
2024/01/09 00:33:08;;;;;;;4.13;3.63;;;;;;;;;;4982196;28;20074;-79
2024/01/09 00:35:36;;;;;;;3.30;2.25;;;;;;;;;;4980809;28;20050;-79
2024/01/09 00:38:04;;;;;;;3.67;2.88;;;;;;;;;;4980769;28;20101;-79
2024/01/09 00:40:31;;;;;;;2.60;1.92;;;;;;;;;;4981436;28;20062;-79
2024/01/09 00:42:59;;;;;;;8.45;5.65;;;;;;;;;;4975597;28;20050;-83
2024/01/09 00:45:26;;;;;;;2.35;1.58;;;;;;;;;;4978332;28;20605;-80
2024/01/09 00:47:54;;;;;;;8.93;5.00;;;;;;;;;;4979702;28;20054;-83
2024/01/09 00:50:21;;;;;;;9.02;5.93;;;;;;;;;;4981128;28;20327;-82
2024/01/09 00:52:49;;;;;;;6.32;3.55;;;;;;;;;;4978771;28;20069;-82
2024/01/09 00:55:17;;;;;;;5.70;4.18;;;;;;;;;;4981835;28;20053;-80
2024/01/09 00:57:44;;;;;;;9.57;5.43;;;;;;;;;;4983676;28;20043;-86
2024/01/09 01:00:12;;;;;;;5.38;3.92;;;;;;;;;;4976387;28;20082;-82
2024/01/09 01:02:40;;;;;;;3.83;2.50;;;;;;;;;;4985017;28;20525;-83
2024/01/09 01:05:07;;;;;;;7.22;4.43;;;;;;;;;;4980142;28;20052;-80
2024/01/09 01:07:35;;;;;;;4.90;3.83;;;;;;;;;;4980921;28;20488;-79
2024/01/09 01:10:03;;;;;;;10.82;6.45;;;;;;;;;;4978259;28;20245;-89
2024/01/09 01:12:31;;;;;;;10.57;7.70;;;;;;;;;;4973987;28;20747;-81
2024/01/09 01:14:58;;;;;;;4.43;3.60;;;;;;;;;;4976397;28;20137;-83
2024/01/09 01:17:26;;;;;;;6.85;4.20;;;;;;;;;;4979497;28;20038;-78
2024/01/09 01:19:54;;;;;;;11.23;7.78;;;;;;;;;;4983647;28;20054;-79
2024/01/09 01:22:22;;;;;;;6.53;4.30;;;;;;;;;;4980625;28;20054;-78
2024/01/09 01:24:50;;;;;;;6.82;4.35;;;;;;;;;;4982072;28;20377;-79
2024/01/09 01:27:17;;;;;;;7.15;5.00;;;;;;;;;;4986470;28;20089;-79
2024/01/09 01:29:45;;;;;;;8.32;6.43;;;;;;;;;;4980949;28;20050;-79
2024/01/09 01:32:13;;;;;;;12.85;5.20;;;;;;;;;;4980717;28;20520;-82
2024/01/09 01:34:41;;;;;;;6.18;2.88;;;;;;;;;;4988597;28;20137;-85
2024/01/09 01:37:08;;;;;;;7.50;4.20;;;;;;;;;;4982394;28;20066;-80
2024/01/09 01:39:36;;;;;;;6.32;4.10;;;;;;;;;;4986798;28;20060;-79
2024/01/09 01:42:04;;;;;;;2.90;1.52;;;;;;;;;;4984270;28;20603;-79
2024/01/09 01:44:32;;;;;;;10.10;5.72;;;;;;;;;;4987415;28;20046;-79
2024/01/09 01:47:00;;;;;;;9.82;6.68;;;;;;;;;;4987427;28;20141;-79
2024/01/09 01:49:27;;;;;;;7.22;5.18;;;;;;;;;;4990869;28;20093;-79
2024/01/09 01:51:55;;;;;;;0.32;0.32;;;;;;;;;;4983119;28;20133;-79
2024/01/09 01:54:23;;;;;;;5.57;3.60;;;;;;;;;;4987166;28;20420;-79
2024/01/09 01:56:51;;;;;;;8.48;4.75;;;;;;;;;;4980976;28;20077;-79
2024/01/09 01:59:20;;;;;;;7.53;3.72;;;;;;;;;;4984889;28;20059;-80
2024/01/09 02:01:47;;;;;;;8.02;4.60;;;;;;;;;;4978355;28;20463;-80
2024/01/09 02:04:16;;;;;;;4.63;3.17;;;;;;;;;;4978243;28;20133;-79
2024/01/09 02:06:44;;;;;;;10.00;5.63;;;;;;;;;;4979227;28;20050;-79
2024/01/09 02:09:11;;;;;;;7.43;3.90;;;;;;;;;;4979742;28;20101;-84
2024/01/09 02:11:39;;;;;;;8.02;5.90;;;;;;;;;;4982402;28;20093;-78
2024/01/09 02:14:06;;;;;;;8.88;5.97;;;;;;;;;;4978705;28;20061;-78
2024/01/09 02:16:34;;;;;;;6.38;4.05;;;;;;;;;;4981622;28;20130;-79
2024/01/09 02:19:02;;;;;;;11.02;6.47;;;;;;;;;;4980512;28;20047;-79
2024/01/09 02:21:30;;;;;;;9.57;5.95;;;;;;;;;;4982628;28;20612;-78
2024/01/09 02:23:57;;;;;;;10.18;7.35;;;;;;;;;;4985578;28;20062;-79
2024/01/09 02:26:30;;;;;;;3.70;2.60;;;;;;;;;;4980469;28;20784;-79
2024/01/09 02:29:22;;;;;;;11.02;6.88;;;;;;;;;;4966740;28;20046;-79
2024/01/09 02:31:51;;;;;;;5.60;3.30;;;;;;;;;;4980645;28;20043;-79
2024/01/09 02:34:20;;;;;;;6.97;3.45;;;;;;;;;;4980977;28;20496;-79
2024/01/09 02:36:48;;;;;;;17.05;7.10;;;;;;;;;;4981840;28;20068;-79
2024/01/09 02:39:15;;;;;;;3.00;2.63;;;;;;;;;;4987070;28;20097;-80
2024/01/09 02:41:45;;;;;;;3.78;3.17;;;;;;;;;;4983437;28;20145;-78
2024/01/09 02:44:14;;;;;;;13.43;8.00;;;;;;;;;;4981278;28;20050;-79
2024/01/09 02:46:42;;;;;;;14.40;10.07;;;;;;;;;;4977762;28;20046;-81
2024/01/09 02:49:11;;;;;;;2.35;2.15;;;;;;;;;;4980229;28;20137;-79
2024/01/09 02:51:39;;;;;;;1.88;1.75;;;;;;;;;;4978587;28;20103;-79
2024/01/09 02:54:06;;;;;;;5.30;3.45;;;;;;;;;;4980383;28;20047;-79
2024/01/09 02:56:36;;;;;;;9.07;5.90;;;;;;;;;;4986113;28;20401;-79
2024/01/09 02:59:04;;;;;;;5.78;3.42;;;;;;;;;;4978206;28;20050;-79
2024/01/09 03:01:32;;;;;;;5.93;2.38;;;;;;;;;;4980910;28;20058;-86
2024/01/09 03:03:59;;;;;;;10.20;5.82;;;;;;;;;;4979089;28;20061;-80
2024/01/09 03:06:27;;;;;;;6.72;4.85;;;;;;;;;;4980792;28;20068;-80
2024/01/09 03:08:55;;;;;;;2.35;2.13;;;;;;;;;;4998944;28;20046;-80
2024/01/09 03:11:23;;;;;;;6.00;4.55;;;;;;;;;;4978576;28;20508;-79
2024/01/09 03:13:51;;;;;;;8.85;5.40;;;;;;;;;;4982133;28;20489;-79
2024/01/09 03:16:18;;;;;;;9.52;5.57;;;;;;;;;;4976126;28;20050;-79
2024/01/09 03:18:46;;;;;;;6.68;5.30;;;;;;;;;;4986762;28;20070;-79
2024/01/09 03:21:14;;;;;;;2.92;2.10;;;;;;;;;;4981809;28;20050;-79
2024/01/09 03:23:42;;;;;;;9.23;6.15;;;;;;;;;;4984725;28;20495;-78
2024/01/09 03:26:09;;;;;;;1.45;1.30;;;;;;;;;;4981097;28;20051;-81
2024/01/09 03:28:37;;;;;;;4.55;3.20;;;;;;;;;;4972583;28;20042;-80
2024/01/09 03:31:05;;;;;;;3.13;2.53;;;;;;;;;;4982622;28;20240;-80
2024/01/09 03:33:32;;;;;;;3.58;2.13;;;;;;;;;;4973754;28;20074;-79
2024/01/09 03:36:05;;;;;;;2.42;1.95;;;;;;;;;;4977398;28;20058;-79
2024/01/09 03:38:32;;;;;;;4.45;4.03;;;;;;;;;;4982041;28;20073;-78
2024/01/09 03:41:00;;;;;;;3.42;2.65;;;;;;;;;;4973884;28;20581;-79
2024/01/09 03:43:27;;;;;;;2.78;2.50;;;;;;;;;;4983285;28;20076;-79
2024/01/09 03:45:57;;;;;;;7.13;4.35;;;;;;;;;;4986655;28;20065;-78
2024/01/09 03:48:24;;;;;;;6.72;3.90;;;;;;;;;;4980246;28;20091;-79
2024/01/09 03:50:52;;;;;;;3.72;2.85;;;;;;;;;;4977678;28;20045;-80
2024/01/09 03:53:20;;;;;;;6.35;3.05;;;;;;;;;;4981423;28;20062;-81
2024/01/09 03:55:47;;;;;;;5.60;3.45;;;;;;;;;;4980871;28;20080;-82
2024/01/09 03:58:15;;;;;;;2.83;2.35;;;;;;;;;;4985688;28;20046;-79
2024/01/09 04:00:42;;;;;;;7.22;4.13;;;;;;;;;;4980842;28;20410;-79
2024/01/09 04:03:10;;;;;;;10.95;7.50;;;;;;;;;;4979196;28;20054;-78
2024/01/09 04:05:38;;;;;;;11.38;2.78;;;;;;;;;;4975743;28;20054;-79
2024/01/09 04:08:06;;;;;;;15.45;10.48;;;;;;;;;;4982546;28;20074;-79
2024/01/09 04:10:33;;;;;;;10.13;5.53;;;;;;;;;;4981946;28;20061;-79
2024/01/09 04:13:02;;;;;;;8.32;4.68;;;;;;;;;;4983299;28;20511;-78
2024/01/09 04:15:30;;;;;;;7.60;4.50;;;;;;;;;;4984487;28;20046;-79
2024/01/09 04:17:57;;;;;;;10.00;7.00;;;;;;;;;;4981016;28;20047;-79
2024/01/09 04:20:25;;;;;;;11.48;7.68;;;;;;;;;;4985856;28;20061;-78
2024/01/09 04:22:52;;;;;;;8.00;5.57;;;;;;;;;;4987235;28;20065;-87
2024/01/09 04:25:29;;;;;;;11.60;7.45;;;;;;;;;;4977327;28;20084;-78
2024/01/09 04:27:57;;;;;;;5.97;2.42;;;;;;;;;;4972839;28;20133;-79
2024/01/09 04:30:26;;;;;;;7.10;4.65;;;;;;;;;;4971871;28;20398;-83
2024/01/09 04:32:54;;;;;;;5.47;3.63;;;;;;;;;;4996540;23;20053;-78
2024/01/09 04:35:21;;;;;;;14.55;7.13;;;;;;;;;;4963998;28;20058;-78
2024/01/09 04:37:49;;;;;;;7.65;4.78;;;;;;;;;;4951024;28;20053;-78
2024/01/09 04:40:17;;;;;;;7.63;5.18;;;;;;;;;;4946746;28;20583;-78
2024/01/09 04:42:44;;;;;;;8.02;3.78;;;;;;;;;;4958285;28;20054;-78
2024/01/09 04:45:12;;;;;;;10.55;6.97;;;;;;;;;;4959920;28;20082;-78
2024/01/09 04:47:39;;;;;;;2.88;2.33;;;;;;;;;;4961293;28;20047;-78
2024/01/09 04:50:08;;;;;;;2.30;2.08;;;;;;;;;;4960115;28;20074;-78
2024/01/09 04:52:37;;;;;;;5.60;4.25;;;;;;;;;;4959724;28;20141;-78
2024/01/09 04:55:05;;;;;;;3.28;3.00;;;;;;;;;;4959538;28;20042;-78
2024/01/09 04:57:33;;;;;;;10.07;5.78;;;;;;;;;;4953869;28;20047;-78
2024/01/09 05:00:00;;;;;;;13.55;7.90;;;;;;;;;;4962533;28;20288;-78
2024/01/09 05:02:29;;;;;;;10.30;4.82;;;;;;;;;;4947002;28;20460;-78
2024/01/09 05:04:56;;;;;;;7.78;5.75;;;;;;;;;;4960685;28;20066;-78
2024/01/09 05:07:24;;;;;;;7.32;3.85;;;;;;;;;;4958867;28;20046;-78
2024/01/09 05:09:52;;;;;;;6.05;4.68;;;;;;;;;;4953075;28;20497;-78
2024/01/09 05:12:20;;;;;;;8.25;6.38;;;;;;;;;;4946167;28;20773;-78
2024/01/09 05:14:48;;;;;;;7.05;4.40;;;;;;;;;;4946886;28;20043;-78
2024/01/09 05:17:16;;;;;;;10.43;6.10;;;;;;;;;;4952555;28;20047;-78
2024/01/09 05:19:44;;;;;;;10.98;6.13;;;;;;;;;;4963037;28;20834;-79
2024/01/09 05:22:12;;;;;;;9.40;5.35;;;;;;;;;;4958271;28;20683;-79
2024/01/09 05:24:39;;;;;;;3.22;2.70;;;;;;;;;;4964446;28;20102;-79
2024/01/09 05:27:07;;;;;;;5.22;3.85;;;;;;;;;;4965513;28;20070;-79
2024/01/09 05:29:37;;;;;;;5.70;3.60;;;;;;;;;;4961383;28;20062;-79
2024/01/09 05:32:06;;;;;;;10.02;5.30;;;;;;;;;;4964749;28;20074;-79
2024/01/09 05:34:34;;;;;;;4.10;2.22;;;;;;;;;;4966247;28;20061;-79
2024/01/09 05:37:02;;;;;;;7.63;5.32;;;;;;;;;;4965385;28;20051;-79
2024/01/09 05:39:30;;;;;;;9.90;5.22;;;;;;;;;;4949221;28;20462;-79
2024/01/09 05:41:58;;;;;;;4.85;3.33;;;;;;;;;;4944403;28;20082;-79
2024/01/09 05:44:26;;;;;;;17.73;9.55;;;;;;;;;;4964060;28;20046;-78
2024/01/09 05:46:54;;;;;;;4.32;2.10;;;;;;;;;;4964183;28;20051;-77
2024/01/09 05:49:21;;;;;;;15.27;5.65;;;;;;;;;;4946420;28;20082;-78
2024/01/09 05:51:49;;;;;;;2.40;2.05;;;;;;;;;;4950904;28;20049;-79
2024/01/09 05:54:17;;;;;;;5.38;3.47;;;;;;;;;;4957750;28;20477;-79
2024/01/09 05:56:44;;;;;;;7.68;4.15;;;;;;;;;;4961299;28;20043;-78
2024/01/09 05:59:12;;;;;;;19.42;10.98;;;;;;;;;;4958549;28;20059;-78
2024/01/09 06:01:39;;;;;;;10.05;5.10;;;;;;;;;;4958750;28;20457;-79
2024/01/09 06:04:07;;;;;;;8.80;5.45;;;;;;;;;;4955727;28;20059;-79
2024/01/09 06:06:35;;;;;;;5.40;3.03;;;;;;;;;;4955420;28;20050;-78
2024/01/09 06:09:02;;;;;;;2.15;1.95;;;;;;;;;;4960404;28;20112;-79
2024/01/09 06:11:30;;;;;;;6.05;3.30;;;;;;;;;;4964944;28;20122;-79
2024/01/09 06:13:58;;;;;;;10.98;7.15;;;;;;;;;;4961684;28;20133;-79
2024/01/09 06:16:26;;;;;;;3.03;1.42;;;;;;;;;;4946124;28;20051;-79
2024/01/09 06:18:53;;;;;;;13.80;3.63;;;;;;;;;;4958522;28;20047;-79
2024/01/09 06:21:21;;;;;;;4.53;3.40;;;;;;;;;;4947916;28;20126;-79
2024/01/09 06:23:49;;;;;;;10.60;4.97;;;;;;;;;;4955442;28;20714;-79
2024/01/09 06:26:17;;;;;;;1.23;1.13;;;;;;;;;;4950393;28;20050;-78
2024/01/09 06:28:45;;;;;;;3.53;3.20;;;;;;;;;;4967955;28;20634;-79
2024/01/09 06:31:13;;;;;;;4.88;2.03;;;;;;;;;;4958880;28;20062;-79
2024/01/09 06:33:41;;;;;;;5.18;2.03;;;;;;;;;;4965030;28;20066;-78
2024/01/09 06:36:08;;;;;;;6.40;3.85;;;;;;;;;;4952886;28;20135;-78
2024/01/09 06:38:36;;;;;;;2.33;2.22;;;;;;;;;;4964508;28;20047;-78
2024/01/09 06:41:04;;;;;;;4.30;3.03;;;;;;;;;;4948883;28;20145;-78
2024/01/09 06:43:32;;;;;;;5.90;4.70;;;;;;;;;;4950284;28;20059;-78
2024/01/09 06:46:00;;;;;;;2.17;1.98;;;;;;;;;;4949757;28;20050;-78
2024/01/09 06:48:27;;;;;;;1.33;1.17;;;;;;;;;;4948030;28;20051;-78
2024/01/09 06:50:55;;;;;;;3.80;2.30;;;;;;;;;;4941985;28;20047;-78
2024/01/09 06:53:24;;;;;;;1.65;1.55;;;;;;;;;;4943927;28;20101;-78
2024/01/09 06:55:51;;;;;;;4.40;2.17;;;;;;;;;;4963384;28;20134;-78
2024/01/09 06:58:19;;;;;;;3.75;2.35;;;;;;;;;;4959401;28;20497;-78
2024/01/09 07:00:47;;;;;;;3.28;2.60;;;;;;;;;;4948531;28;20594;-78
2024/01/09 07:03:14;;;;;;;3.55;3.08;;;;;;;;;;4949661;28;20046;-78
2024/01/09 07:05:42;;;;;;;6.90;4.47;;;;;;;;;;4958078;28;20457;-78
2024/01/09 07:08:10;;;;;;;8.75;7.22;;;;;;;;;;4949441;28;20544;-78
2024/01/09 07:10:38;;;;;;;4.22;3.47;;;;;;;;;;4955729;28;20058;-78
2024/01/09 07:13:05;;;;;;;14.82;5.78;;;;;;;;;;4956022;28;20169;-78
2024/01/09 07:15:33;;;;;;;5.00;4.13;;;;;;;;;;4959788;28;20055;-78
2024/01/09 07:18:01;;;;;;;2.83;1.75;;;;;;;;;;4956328;28;20523;-78
2024/01/09 07:20:29;;;;;;;1.92;1.63;;;;;;;;;;4963869;28;20061;-78
2024/01/09 07:22:57;;;;;;;6.35;4.63;;;;;;;;;;4956930;28;20429;-78
2024/01/09 07:25:40;;;;;;;3.20;2.83;;;;;;;;;;4946095;28;20055;-78
2024/01/09 07:28:08;;;;;;;4.47;3.67;;;;;;;;;;4943717;28;20121;-78
2024/01/09 07:30:35;;;;;;;1.52;1.02;;;;;;;;;;4945433;28;20137;-78
2024/01/09 07:33:03;;;;;;;1.40;1.30;;;;;;;;;;4943195;28;20493;-78
2024/01/09 07:35:34;;;;;;;3.55;2.72;;;;;;;;;;4940283;28;20051;-78
2024/01/09 07:38:02;;;;;;;0.98;0.98;;;;;;;;;;4939429;28;20110;-78
2024/01/09 07:40:29;;;;;;;9.88;3.95;;;;;;;;;;4951440;28;20145;-78
2024/01/09 07:42:59;;;;;;;1.58;1.48;;;;;;;;;;4936738;28;20039;-78
2024/01/09 07:45:31;;;;;;;3.20;2.67;;;;;;;;;;4945948;28;20039;-78
2024/01/09 07:48:00;;;;;;;2.50;1.58;;;;;;;;;;4947775;28;20098;-78
2024/01/09 07:50:28;;;;;;;4.43;3.22;;;;;;;;;;4950664;28;20089;-78
2024/01/09 07:52:55;;;;;;;0.63;0.63;;;;;;;;;;4953313;28;20541;-78
2024/01/09 07:55:23;;;;;;;2.47;2.25;;;;;;;;;;4944528;28;20478;-77
2024/01/09 07:57:51;;;;;;;9.65;1.80;;;;;;;;;;4944312;28;20412;-78
2024/01/09 08:00:19;;;;;;;6.03;2.65;;;;;;;;;;4952532;28;20341;-78
2024/01/09 08:02:47;;;;;;;2.75;2.53;;;;;;;;;;4965575;28;20061;-78
2024/01/09 08:05:15;;;;;;;0.80;0.77;;;;;;;;;;4961138;28;20057;-78
2024/01/09 08:07:43;;;;;;;1.75;1.65;;;;;;;;;;4966925;28;20043;-78
2024/01/09 08:10:11;;;;;;;4.15;3.70;;;;;;;;;;4964324;28;20058;-78
2024/01/09 08:12:38;;;;;;;5.75;3.47;;;;;;;;;;4961723;28;20043;-78
2024/01/09 08:15:06;;;;;;;3.15;2.85;;;;;;;;;;4962907;28;20783;-79
2024/01/09 08:17:33;;;;;;;1.98;1.60;;;;;;;;;;4952429;28;20055;-79
2024/01/09 08:20:03;;;;;;;3.03;2.83;;;;;;;;;;4949604;28;20047;-78
2024/01/09 08:22:31;;;;;;;5.00;4.25;;;;;;;;;;4959699;28;20071;-78
2024/01/09 08:25:00;;;;;;;3.15;2.72;;;;;;;;;;4962541;28;20412;-78
2024/01/09 08:27:28;;;;;;;4.38;3.55;;;;;;;;;;4955287;28;20061;-78
2024/01/09 08:29:56;;;;;;;1.75;1.50;;;;;;;;;;4965428;28;20108;-79
2024/01/09 08:32:23;;;;;;;17.52;4.00;;;;;;;;;;4956823;28;20465;-78
2024/01/09 08:34:51;;;;;;;6.88;2.92;;;;;;;;;;4959942;28;20051;-78
2024/01/09 08:37:19;;;;;;;3.03;1.70;;;;;;;;;;4955613;28;21230;-78
2024/01/09 08:39:47;;;;;;;5.00;1.75;;;;;;;;;;4966142;28;20400;-78
2024/01/09 08:42:14;;;;;;;7.78;5.47;;;;;;;;;;4963433;28;20058;-79
2024/01/09 08:44:42;;;;;;;4.25;2.38;;;;;;;;;;4965497;28;20054;-79
2024/01/09 08:47:10;;;;;;;2.10;1.63;;;;;;;;;;4951458;28;20069;-79
2024/01/09 08:49:38;;;;;;;3.90;2.60;;;;;;;;;;4961558;28;20516;-78
2024/01/09 08:52:06;;;;;;;3.25;2.97;;;;;;;;;;4955711;28;20050;-79
2024/01/09 08:54:33;;;;;;;12.60;6.43;;;;;;;;;;4950707;28;20066;-79
2024/01/09 08:57:01;;;;;;;9.63;4.00;;;;;;;;;;4962737;28;20047;-78
2024/01/09 08:59:29;;;;;;;4.82;3.85;;;;;;;;;;4947696;28;20047;-78
2024/01/09 09:01:57;;;;;;;2.83;2.35;;;;;;;;;;4960791;28;20525;-78
2024/01/09 09:04:25;;;;;;;1.73;1.63;;;;;;;;;;4962266;28;20086;-78
2024/01/09 09:06:53;;;;;;;4.13;2.53;;;;;;;;;;4961878;28;20098;-78
2024/01/09 09:09:21;;;;;;;2.78;2.53;;;;;;;;;;4967091;28;20054;-78
2024/01/09 09:11:49;;;;;;;9.00;5.82;;;;;;;;;;4967749;28;20058;-78
2024/01/09 09:14:17;;;;;;;7.78;3.33;;;;;;;;;;4953264;28;20821;-78
2024/01/09 09:16:44;;;;;;;7.00;4.25;;;;;;;;;;4949212;28;20050;-78
2024/01/09 09:19:12;;;;;;;12.77;4.88;;;;;;;;;;4959060;28;20419;-78
2024/01/09 09:21:40;;;;;;;2.15;1.95;;;;;;;;;;4965269;28;20521;-77
2024/01/09 09:24:08;;;;;;;9.00;5.53;;;;;;;;;;4964786;28;20055;-78
2024/01/09 09:26:36;;;;;;;3.17;2.60;;;;;;;;;;4967232;28;20078;-78
2024/01/09 09:29:04;;;;;;;23.25;5.13;;;;;;;;;;4967805;28;20138;-78
2024/01/09 09:31:45;;;;;;;3.83;1.95;;;;;;;;;;4966337;28;20509;-78
2024/01/09 09:34:13;;;;;;;2.20;2.03;;;;;;;;;;4961627;28;20129;-79
2024/01/09 09:36:41;;;;;;;5.18;2.88;;;;;;;;;;4965429;28;20047;-78
2024/01/09 09:39:10;;;;;;;15.75;6.72;;;;;;;;;;4967561;28;20031;-78
2024/01/09 09:41:39;;;;;;;11.52;5.35;;;;;;;;;;4962853;28;20129;-78
2024/01/09 09:44:07;;;;;;;4.32;3.38;;;;;;;;;;4957214;28;20527;-78
2024/01/09 09:46:36;;;;;;;6.50;4.07;;;;;;;;;;4966673;28;20436;-79
2024/01/09 09:49:04;;;;;;;2.92;2.65;;;;;;;;;;4966876;28;20078;-78
2024/01/09 09:51:32;;;;;;;11.77;6.97;;;;;;;;;;4965660;28;20054;-78
2024/01/09 09:54:02;;;;;;;9.73;6.05;;;;;;;;;;4968631;28;20072;-78
2024/01/09 09:56:32;;;;;;;6.15;3.90;;;;;;;;;;4965567;28;20090;-78
2024/01/09 09:59:00;;;;;;;6.88;2.22;;;;;;;;;;4965548;28;20066;-79
2024/01/09 10:01:29;;;;;;;5.85;2.28;;;;;;;;;;4963819;28;20046;-78
2024/01/09 10:03:57;;;;;;;1.23;1.23;;;;;;;;;;4966439;28;20043;-78
2024/01/09 10:06:25;;;;;;;3.90;1.65;;;;;;;;;;4965099;28;20077;-78
2024/01/09 10:08:54;;;;;;;11.20;6.88;;;;;;;;;;4966409;28;20121;-78
2024/01/09 10:11:23;;;;;;;3.35;2.30;;;;;;;;;;4968438;28;20134;-78
2024/01/09 10:13:51;;;;;;;6.18;4.50;;;;;;;;;;4967914;28;20057;-79
2024/01/09 10:16:19;;;;;;;5.43;2.95;;;;;;;;;;4969330;28;20086;-78
2024/01/09 10:18:47;;;;;;;4.03;2.80;;;;;;;;;;4971148;28;20065;-78
2024/01/09 10:21:15;;;;;;;11.82;7.60;;;;;;;;;;4968950;28;20074;-79
2024/01/09 10:23:42;;;;;;;5.15;3.65;;;;;;;;;;4970695;28;20650;-78
2024/01/09 10:26:13;;;;;;;10.25;4.63;;;;;;;;;;4970180;28;20137;-78
2024/01/09 10:28:41;;;;;;;2.13;1.97;;;;;;;;;;4969948;28;20111;-79
2024/01/09 10:31:09;;;;;;;7.70;4.05;;;;;;;;;;4969726;28;20302;-79
2024/01/09 10:33:40;;;;;;;8.27;1.33;;;;;;;;;;4979742;23;20154;-78
2024/01/09 10:36:09;;;;;;;7.63;3.58;;;;;;;;;;4962181;28;20045;-78
2024/01/09 10:38:37;;;;;;;9.43;3.53;;;;;;;;;;4967245;28;20049;-77
2024/01/09 10:41:17;;;;;;;9.30;5.35;;;;;;;;;;4961275;28;20058;-78
2024/01/09 10:43:45;;;;;;;5.82;4.50;;;;;;;;;;4969842;28;20735;-78
2024/01/09 10:46:12;;;;;;;3.13;2.50;;;;;;;;;;4968266;28;20047;-77
2024/01/09 10:48:41;;;;;;;10.73;7.13;;;;;;;;;;4968746;28;20061;-77
2024/01/09 10:51:12;;;;;;;11.43;4.60;;;;;;;;;;4963972;28;20097;-77
2024/01/09 10:53:42;;;;;;;15.48;5.80;;;;;;;;;;4982448;28;20053;-77
2024/01/09 10:56:11;;;;;;;6.82;4.30;;;;;;;;;;4966350;28;20134;-78
2024/01/09 10:58:39;;;;;;;3.17;2.35;;;;;;;;;;4964444;28;20239;-77
2024/01/09 11:01:07;;;;;;;3.15;2.60;;;;;;;;;;4961765;28;20461;-78
2024/01/09 11:03:34;;;;;;;10.00;5.85;;;;;;;;;;4966767;28;20105;-77
2024/01/09 11:06:03;;;;;;;11.88;5.70;;;;;;;;;;4964911;28;20061;-77
2024/01/09 11:08:36;;;;;;;7.20;4.88;;;;;;;;;;4966881;28;20047;-78
2024/01/09 11:11:06;;;;;;;6.22;4.18;;;;;;;;;;4967749;28;20109;-78
2024/01/09 11:13:35;;;;;;;4.75;3.83;;;;;;;;;;4971383;28;20065;-78
2024/01/09 11:16:03;;;;;;;10.30;6.28;;;;;;;;;;4968613;28;20085;-78
2024/01/09 11:18:32;;;;;;;2.80;1.42;;;;;;;;;;4970626;28;20054;-78
2024/01/09 11:21:01;;;;;;;2.90;2.40;;;;;;;;;;4970705;28;20563;-78
2024/01/09 11:23:46;;;;;;;6.88;3.65;;;;;;;;;;4973112;28;20054;-78
2024/01/09 11:26:14;;;;;;;6.70;3.38;;;;;;;;;;4966925;28;20507;-78
2024/01/09 11:28:47;;;;;;;2.45;2.25;;;;;;;;;;4969134;28;20042;-78
2024/01/09 11:31:17;;;;;;;8.48;3.60;;;;;;;;;;4966589;28;20463;-78
2024/01/09 11:33:45;;;;;;;6.05;2.85;;;;;;;;;;4969828;28;20046;-78
2024/01/09 11:36:14;;;;;;;3.15;1.42;;;;;;;;;;4961107;28;20390;-78
2024/01/09 11:38:43;;;;;;;0.60;0.60;;;;;;;;;;4970851;28;20548;-78
2024/01/09 11:41:10;;;;;;;1.65;1.45;;;;;;;;;;4966720;28;20079;-78
2024/01/09 11:43:56;;;;;;;1.20;1.10;;;;;;;;;;4971171;28;20157;-78
2024/01/09 11:46:24;;;;;;;7.85;3.22;;;;;;;;;;4970001;28;20051;-78
2024/01/09 11:48:52;;;;;;;2.47;1.23;;;;;;;;;;4970716;28;20046;-78
2024/01/09 11:51:21;;;;;;;3.17;2.28;;;;;;;;;;4967647;28;20525;-79
2024/01/09 11:53:49;;;;;;;5.00;2.95;;;;;;;;;;4968184;28;20043;-78
2024/01/09 11:56:19;;;;;;;3.60;3.20;;;;;;;;;;4971411;28;20115;-79
2024/01/09 11:58:50;;;;;;;6.40;4.60;;;;;;;;;;4964547;28;20051;-79
2024/01/09 12:01:19;;;;;;;1.67;0.97;;;;;;;;;;4970258;28;20043;-78
2024/01/09 12:03:54;;;;;;;5.88;3.53;;;;;;;;;;4966429;28;20081;-78
2024/01/09 12:06:25;;;;;;;8.32;3.00;;;;;;;;;;4970395;28;20056;-78
2024/01/09 12:08:53;;;;;;;5.32;2.30;;;;;;;;;;4971660;28;20047;-79
2024/01/09 12:11:21;;;;;;;1.83;1.63;;;;;;;;;;4967513;28;20059;-78
2024/01/09 12:13:58;;;;;;;5.88;4.40;;;;;;;;;;4970519;28;20074;-78
2024/01/09 12:16:29;;;;;;;2.88;2.65;;;;;;;;;;4969559;28;20049;-78
2024/01/09 12:18:57;;;;;;;10.00;4.75;;;;;;;;;;4969432;28;20055;-78
2024/01/09 12:21:26;;;;;;;0.95;0.77;;;;;;;;;;4969989;28;20133;-78
2024/01/09 12:23:55;;;;;;;13.20;4.07;;;;;;;;;;4968400;28;20070;-78
2024/01/09 12:26:44;;;;;;;1.67;1.58;;;;;;;;;;4968597;28;20054;-78
2024/01/09 12:29:12;;;;;;;2.97;2.22;;;;;;;;;;4963499;28;20220;-77
2024/01/09 12:31:40;;;;;;;6.90;3.22;;;;;;;;;;4966664;28;20117;-77
2024/01/09 12:34:08;;;;;;;2.15;2.03;;;;;;;;;;4962694;28;20089;-77
2024/01/09 12:36:36;;;;;;;9.93;3.42;;;;;;;;;;4966541;28;20058;-78
2024/01/09 12:39:08;;;;;;;5.82;4.25;;;;;;;;;;4965726;28;20113;-77
2024/01/09 12:41:36;;;;;;;4.38;1.75;;;;;;;;;;4964057;28;20077;-77
2024/01/09 12:44:10;;;;;;;5.03;2.40;;;;;;;;;;4964610;28;20077;-77
2024/01/09 12:46:42;;;;;;;3.38;2.50;;;;;;;;;;4966623;28;20457;-77
2024/01/09 12:49:09;;;;;;;4.40;3.10;;;;;;;;;;4963588;28;20103;-78
2024/01/09 12:51:37;;;;;;;9.52;4.82;;;;;;;;;;4965176;28;20571;-77
2024/01/09 12:54:05;;;;;;;5.65;3.47;;;;;;;;;;4964848;28;20139;-77
2024/01/09 12:56:34;;;;;;;5.78;3.25;;;;;;;;;;4962053;28;20073;-77
2024/01/09 12:59:02;;;;;;;7.95;3.67;;;;;;;;;;4964543;28;20560;-77
2024/01/09 13:01:30;;;;;;;5.60;3.92;;;;;;;;;;4966033;28;20523;-77
2024/01/09 13:04:00;;;;;;;8.93;6.07;;;;;;;;;;4963559;28;20055;-77
2024/01/09 13:06:28;;;;;;;4.32;3.20;;;;;;;;;;4966006;28;20497;-77
2024/01/09 13:08:56;;;;;;;7.85;4.28;;;;;;;;;;4967262;28;20073;-77
2024/01/09 13:11:24;;;;;;;7.80;4.32;;;;;;;;;;4962106;28;20042;-77
2024/01/09 13:13:53;;;;;;;7.10;4.55;;;;;;;;;;4960053;28;20042;-77
2024/01/09 13:16:20;;;;;;;5.78;4.57;;;;;;;;;;4963121;28;20171;-77
2024/01/09 13:18:48;;;;;;;2.55;2.15;;;;;;;;;;4965086;28;20058;-77
2024/01/09 13:21:17;;;;;;;4.63;2.85;;;;;;;;;;4965436;28;20070;-77
2024/01/09 13:23:45;;;;;;;6.68;3.75;;;;;;;;;;4970158;28;20058;-77
2024/01/09 13:26:19;;;;;;;4.28;2.90;;;;;;;;;;4968784;28;20100;-78
2024/01/09 13:28:47;;;;;;;1.70;1.42;;;;;;;;;;4966138;28;20142;-77
2024/01/09 13:31:35;;;;;;;4.63;2.50;;;;;;;;;;4965747;28;20065;-78
2024/01/09 13:34:03;;;;;;;4.55;2.47;;;;;;;;;;4961695;28;20047;-77
2024/01/09 13:36:31;;;;;;;6.13;2.35;;;;;;;;;;4967572;28;20042;-77
2024/01/09 13:38:58;;;;;;;5.28;3.70;;;;;;;;;;4955057;28;20134;-76
2024/01/09 13:41:26;;;;;;;14.45;5.57;;;;;;;;;;4963710;28;20043;-77
2024/01/09 13:43:56;;;;;;;4.97;3.47;;;;;;;;;;4961322;28;20051;-77
2024/01/09 13:46:24;;;;;;;5.95;3.97;;;;;;;;;;4963630;28;20500;-77
2024/01/09 13:48:52;;;;;;;8.23;4.65;;;;;;;;;;4958833;28;20486;-77
2024/01/09 13:51:21;;;;;;;8.48;5.15;;;;;;;;;;4960624;28;20616;-77
2024/01/09 13:53:53;;;;;;;7.25;3.95;;;;;;;;;;4963534;28;20156;-77
2024/01/09 13:56:20;;;;;;;6.78;3.50;;;;;;;;;;4953935;28;20449;-77
2024/01/09 13:58:48;;;;;;;5.72;3.78;;;;;;;;;;4960622;28;20054;-77
2024/01/09 14:01:16;;;;;;;6.70;3.40;;;;;;;;;;4965812;28;20417;-78
2024/01/09 14:04:00;;;;;;;4.43;3.42;;;;;;;;;;4964674;28;20070;-77
2024/01/09 14:06:30;;;;;;;9.52;4.65;;;;;;;;;;4965074;28;20067;-77
2024/01/09 14:08:58;;;;;;;3.90;3.30;;;;;;;;;;4961721;28;20055;-76
2024/01/09 14:11:26;;;;;;;5.90;3.33;;;;;;;;;;4962245;28;20055;-77
2024/01/09 14:13:53;;;;;;;9.63;4.03;;;;;;;;;;4964041;28;20047;-77
2024/01/09 14:16:21;;;;;;;1.38;1.20;;;;;;;;;;4967510;28;20044;-77
2024/01/09 14:18:49;;;;;;;4.90;3.05;;;;;;;;;;4963684;28;20054;-77
2024/01/09 14:21:17;;;;;;;3.10;2.15;;;;;;;;;;4968990;28;20042;-77
2024/01/09 14:23:44;;;;;;;0.55;0.55;;;;;;;;;;4962410;28;20165;-77
2024/01/09 14:26:14;;;;;;;4.70;3.33;;;;;;;;;;4963169;28;20077;-77
2024/01/09 14:28:41;;;;;;;4.88;3.35;;;;;;;;;;4967443;28;20055;-77
2024/01/09 14:31:09;;;;;;;6.55;2.97;;;;;;;;;;4967155;28;20055;-77
2024/01/09 14:33:37;;;;;;;7.50;5.13;;;;;;;;;;4968970;28;20469;-77
2024/01/09 14:36:05;;;;;;;2.72;2.08;;;;;;;;;;4967444;28;20565;-77
2024/01/09 14:38:33;;;;;;;4.78;2.13;;;;;;;;;;4966495;28;20138;-77
2024/01/09 14:41:01;;;;;;;2.22;1.65;;;;;;;;;;4961473;28;20470;-77
2024/01/09 14:43:30;;;;;;;2.13;1.52;;;;;;;;;;4956080;28;20061;-77
2024/01/09 14:45:58;;;;;;;1.05;1.05;;;;;;;;;;4957342;28;20063;-77
2024/01/09 14:48:26;;;;;;;1.55;1.45;;;;;;;;;;4966592;28;20051;-77